Time;durP1;ratioP1;P1;durP2;ratioP2;P2;SDS_P1;SDS_P2;PMS_P1;PMS_P2;Temp;Humidity;BMP_temperature;BMP_pressure;BME280_temperature;BME280_humidity;BME280_pressure;Samples;Min_cycle;Max_cycle;Signal;HPM_P1;HPM_P2
2019/06/11 00:02:07;;;;;;;1.65;1.50;;;;;;;20.94;52.54;100069.66;;;;-51
2019/06/11 00:05:07;;;;;;;1.97;1.59;;;;;;;20.94;52.56;100070.94;;;;-52
2019/06/11 00:08:07;;;;;;;1.78;1.57;;;;;;;20.93;52.52;100063.34;;;;-52
2019/06/11 00:11:07;;;;;;;1.94;1.70;;;;;;;20.93;52.51;100058.14;;;;-57
2019/06/11 00:14:07;;;;;;;2.55;1.59;;;;;;;20.93;52.56;100058.48;;;;-52
2019/06/11 00:17:07;;;;;;;1.75;1.62;;;;;;;20.93;52.59;100059.55;;;;-56
2019/06/11 00:20:07;;;;;;;1.71;1.61;;;;;;;20.93;52.57;100065.09;;;;-55
2019/06/11 00:23:07;;;;;;;1.99;1.70;;;;;;;20.93;52.56;100079.97;;;;-56
2019/06/11 00:26:07;;;;;;;2.13;1.70;;;;;;;20.93;52.52;100078.45;;;;-55
2019/06/11 00:29:07;;;;;;;1.86;1.65;;;;;;;20.92;52.55;100080.17;;;;-56
2019/06/11 00:32:07;;;;;;;1.67;1.57;;;;;;;20.92;52.53;100083.70;;;;-56
2019/06/11 00:35:07;;;;;;;1.86;1.51;;;;;;;20.92;52.56;100094.34;;;;-56
2019/06/11 00:38:07;;;;;;;2.07;1.76;;;;;;;20.91;52.56;100099.88;;;;-56
2019/06/11 00:41:07;;;;;;;1.87;1.60;;;;;;;20.91;52.58;100104.41;;;;-56
2019/06/11 00:44:07;;;;;;;1.69;1.59;;;;;;;20.90;52.55;100108.81;;;;-56
2019/06/11 00:47:07;;;;;;;1.98;1.66;;;;;;;20.91;52.57;100117.14;;;;-56
2019/06/11 00:50:07;;;;;;;2.75;1.71;;;;;;;20.90;52.59;100116.43;;;;-53
2019/06/11 00:53:07;;;;;;;2.15;1.64;;;;;;;20.91;52.52;100117.97;;;;-52
2019/06/11 00:56:07;;;;;;;1.65;1.55;;;;;;;20.90;52.59;100125.49;;;;-52
2019/06/11 00:59:07;;;;;;;1.70;1.60;;;;;;;20.90;52.54;100136.84;;;;-51
2019/06/11 01:02:07;;;;;;;1.76;1.66;;;;;;;20.90;52.53;100154.30;;;;-51
2019/06/11 01:05:07;;;;;;;2.28;1.74;;;;;;;20.89;52.55;100160.58;;;;-61
2019/06/11 01:08:07;;;;;;;3.27;1.53;;;;;;;20.89;52.58;100164.17;;;;-61
2019/06/11 01:11:07;;;;;;;1.65;1.55;;;;;;;20.89;52.56;100171.63;;;;-61
2019/06/11 01:14:07;;;;;;;1.71;1.61;;;;;;;20.89;52.60;100179.78;;;;-59
2019/06/11 01:17:07;;;;;;;1.67;1.57;;;;;;;20.88;52.61;100179.08;;;;-61
2019/06/11 01:20:07;;;;;;;1.66;1.43;;;;;;;20.89;52.63;100175.48;;;;-60
2019/06/11 01:23:07;;;;;;;2.83;1.67;;;;;;;20.88;52.54;100166.15;;;;-60
2019/06/11 01:26:07;;;;;;;1.78;1.65;;;;;;;20.88;52.59;100161.05;;;;-60
2019/06/11 01:29:07;;;;;;;1.74;1.61;;;;;;;20.87;52.62;100156.81;;;;-61
2019/06/11 01:32:07;;;;;;;1.59;1.49;;;;;;;20.87;52.56;100154.63;;;;-60
2019/06/11 01:35:07;;;;;;;1.79;1.62;;;;;;;20.87;52.54;100150.50;;;;-60
2019/06/11 01:38:07;;;;;;;1.97;1.51;;;;;;;20.87;52.58;100136.47;;;;-60
2019/06/11 01:41:07;;;;;;;2.45;1.66;;;;;;;20.87;52.52;100129.52;;;;-60
2019/06/11 01:44:07;;;;;;;2.14;1.75;;;;;;;20.86;52.59;100116.50;;;;-59
2019/06/11 01:47:07;;;;;;;1.76;1.60;;;;;;;20.86;52.58;100106.09;;;;-60
2019/06/11 01:50:07;;;;;;;2.83;1.60;;;;;;;20.85;52.63;100112.94;;;;-61
2019/06/11 01:53:07;;;;;;;2.15;1.50;;;;;;;20.85;52.59;100122.84;;;;-60
2019/06/11 01:56:07;;;;;;;1.93;1.70;;;;;;;20.85;52.56;100141.58;;;;-59
2019/06/11 01:59:06;;;;;;;1.67;1.57;;;;;;;20.86;52.54;100154.23;;;;-61
2019/06/11 02:02:07;;;;;;;1.60;1.50;;;;;;;20.85;52.58;100157.92;;;;-59
2019/06/11 02:05:07;;;;;;;1.98;1.68;;;;;;;20.85;52.61;100168.23;;;;-60
2019/06/11 02:08:07;;;;;;;1.93;1.73;;;;;;;20.85;52.56;100176.85;;;;-61
2019/06/11 02:11:07;;;;;;;2.09;1.47;;;;;;;20.85;52.59;100179.14;;;;-59
2019/06/11 02:14:07;;;;;;;2.20;1.77;;;;;;;20.85;52.59;100179.20;;;;-61
2019/06/11 02:17:07;;;;;;;1.55;1.45;;;;;;;20.84;52.58;100178.70;;;;-60
2019/06/11 02:20:07;;;;;;;1.67;1.57;;;;;;;20.84;52.52;100183.06;;;;-59
2019/06/11 02:23:07;;;;;;;1.61;1.50;;;;;;;20.84;52.53;100185.82;;;;-61
2019/06/11 02:26:07;;;;;;;1.61;1.51;;;;;;;20.83;52.58;100194.04;;;;-61
2019/06/11 02:29:07;;;;;;;1.72;1.59;;;;;;;20.84;52.59;100197.73;;;;-59
2019/06/11 02:32:07;;;;;;;2.50;1.56;;;;;;;20.83;52.56;100198.54;;;;-60
2019/06/11 02:35:06;;;;;;;1.71;1.60;;;;;;;20.83;52.53;100204.69;;;;-60
2019/06/11 02:38:07;;;;;;;1.58;1.48;;;;;;;20.83;52.52;100209.65;;;;-60
2019/06/11 02:41:07;;;;;;;2.31;1.52;;;;;;;20.83;52.63;100219.92;;;;-60
2019/06/11 02:44:07;;;;;;;1.60;1.50;;;;;;;20.82;52.51;100228.25;;;;-59
2019/06/11 02:47:07;;;;;;;1.60;1.50;;;;;;;20.83;52.47;100223.28;;;;-60
2019/06/11 02:50:07;;;;;;;1.90;1.55;;;;;;;20.82;52.52;100224.75;;;;-59
2019/06/11 02:53:06;;;;;;;1.58;1.46;;;;;;;20.82;52.47;100223.95;;;;-56
2019/06/11 02:56:07;;;;;;;1.60;1.50;;;;;;;20.82;52.51;100226.70;;;;-56
2019/06/11 02:59:07;;;;;;;1.91;1.81;;;;;;;20.82;52.55;100229.89;;;;-56
2019/06/11 03:02:07;;;;;;;1.72;1.56;;;;;;;20.82;52.51;100226.09;;;;-55
2019/06/11 03:05:07;;;;;;;1.63;1.53;;;;;;;20.81;52.58;100224.98;;;;-57
2019/06/11 03:08:07;;;;;;;1.68;1.58;;;;;;;20.80;52.56;100228.84;;;;-56
2019/06/11 03:11:06;;;;;;;2.23;1.50;;;;;;;20.80;52.55;100219.08;;;;-56
2019/06/11 03:14:06;;;;;;;1.54;1.40;;;;;;;20.81;52.54;100205.92;;;;-55
2019/06/11 03:17:07;;;;;;;2.27;1.56;;;;;;;20.80;52.55;100196.35;;;;-55
2019/06/11 03:20:06;;;;;;;1.60;1.50;;;;;;;20.80;52.59;100184.94;;;;-56
2019/06/11 03:23:07;;;;;;;1.63;1.40;;;;;;;20.80;52.58;100173.53;;;;-56
2019/06/11 03:26:07;;;;;;;1.61;1.44;;;;;;;20.79;52.61;100165.67;;;;-56
2019/06/11 03:29:07;;;;;;;1.67;1.57;;;;;;;20.79;52.58;100158.69;;;;-56
2019/06/11 03:32:07;;;;;;;1.60;1.50;;;;;;;20.79;52.61;100156.84;;;;-55
2019/06/11 03:35:07;;;;;;;1.97;1.50;;;;;;;20.79;52.58;100153.22;;;;-56
2019/06/11 03:38:07;;;;;;;1.80;1.51;;;;;;;20.79;52.55;100149.86;;;;-56
2019/06/11 03:41:07;;;;;;;1.60;1.50;;;;;;;20.80;52.55;100171.41;;;;-56
2019/06/11 03:44:07;;;;;;;1.79;1.50;;;;;;;20.80;52.54;100174.27;;;;-56
2019/06/11 03:47:07;;;;;;;1.59;1.49;;;;;;;20.80;52.50;100180.23;;;;-56
2019/06/11 03:50:06;;;;;;;1.69;1.59;;;;;;;20.80;52.52;100187.89;;;;-56
2019/06/11 03:53:06;;;;;;;1.49;1.39;;;;;;;20.79;52.51;100185.31;;;;-56
2019/06/11 03:56:07;;;;;;;2.96;1.58;;;;;;;20.79;52.48;100178.27;;;;-56
2019/06/11 03:59:06;;;;;;;1.60;1.50;;;;;;;20.80;52.39;100169.09;;;;-56
2019/06/11 04:02:07;;;;;;;1.67;1.57;;;;;;;20.79;52.49;100155.84;;;;-56
2019/06/11 04:05:07;;;;;;;1.71;1.61;;;;;;;20.79;52.55;100155.56;;;;-56
2019/06/11 04:08:06;;;;;;;1.60;1.50;;;;;;;20.78;52.49;100146.47;;;;-56
2019/06/11 04:11:06;;;;;;;1.51;1.41;;;;;;;20.77;52.56;100140.91;;;;-56
2019/06/11 04:14:07;;;;;;;1.73;1.50;;;;;;;20.77;52.52;100156.04;;;;-55
2019/06/11 04:17:07;;;;;;;1.60;1.50;;;;;;;20.76;52.56;100162.05;;;;-55
2019/06/11 04:20:07;;;;;;;1.61;1.51;;;;;;;20.77;52.56;100160.37;;;;-56
2019/06/11 04:23:07;;;;;;;1.51;1.41;;;;;;;20.77;52.50;100161.47;;;;-56
2019/06/11 04:26:06;;;;;;;1.62;1.52;;;;;;;20.76;52.53;100169.50;;;;-55
2019/06/11 04:29:06;;;;;;;2.17;1.45;;;;;;;20.76;52.56;100170.34;;;;-57
2019/06/11 04:32:06;;;;;;;1.63;1.53;;;;;;;20.75;53.06;100169.30;;;;-51
2019/06/11 04:35:07;;;;;;;7.98;2.27;;;;;;;20.70;54.85;100165.94;;;;-51
2019/06/11 04:38:07;;;;;;;10.35;2.23;;;;;;;20.75;54.00;100163.08;;;;-56
2019/06/11 04:41:07;;;;;;;4.18;1.89;;;;;;;20.76;53.82;100163.63;;;;-52
2019/06/11 04:44:06;;;;;;;6.66;2.00;;;;;;;20.77;53.95;100161.64;;;;-51
2019/06/11 04:47:06;;;;;;;9.09;2.15;;;;;;;20.76;53.88;100153.28;;;;-52
2019/06/11 04:50:06;;;;;;;4.36;1.90;;;;;;;20.76;53.95;100151.98;;;;-52
2019/06/11 04:53:06;;;;;;;4.07;1.78;;;;;;;20.77;53.80;100145.87;;;;-51
2019/06/11 04:56:07;;;;;;;6.55;1.97;;;;;;;20.77;53.79;100146.77;;;;-52
2019/06/11 04:59:07;;;;;;;5.04;1.74;;;;;;;20.76;53.77;100142.81;;;;-52
2019/06/11 05:02:07;;;;;;;3.95;1.76;;;;;;;20.76;53.64;100146.00;;;;-52
2019/06/11 05:05:06;;;;;;;4.03;1.75;;;;;;;20.76;53.60;100145.39;;;;-52
2019/06/11 05:08:07;;;;;;;3.64;1.90;;;;;;;20.76;53.57;100157.08;;;;-51
2019/06/11 05:11:06;;;;;;;4.85;2.07;;;;;;;20.77;53.48;100164.50;;;;-51
2019/06/11 05:14:07;;;;;;;4.24;1.76;;;;;;;20.77;53.42;100163.32;;;;-52
2019/06/11 05:17:07;;;;;;;2.81;1.83;;;;;;;20.77;53.37;100158.45;;;;-52
2019/06/11 05:20:07;;;;;;;2.73;1.93;;;;;;;20.77;53.38;100148.55;;;;-51
2019/06/11 05:23:06;;;;;;;2.73;1.79;;;;;;;20.76;53.27;100149.13;;;;-56
2019/06/11 05:26:07;;;;;;;2.23;1.77;;;;;;;20.76;53.23;100151.80;;;;-55
2019/06/11 05:29:06;;;;;;;3.19;1.70;;;;;;;20.76;53.24;100150.36;;;;-55
2019/06/11 05:32:06;;;;;;;1.98;1.70;;;;;;;20.75;53.21;100147.75;;;;-56
2019/06/11 05:35:07;;;;;;;3.78;1.81;;;;;;;20.75;53.19;100152.01;;;;-48
2019/06/11 05:38:07;;;;;;;2.86;1.70;;;;;;;20.75;53.15;100149.76;;;;-48
2019/06/11 05:41:06;;;;;;;1.99;1.78;;;;;;;20.75;53.11;100139.32;;;;-52
2019/06/11 05:44:06;;;;;;;3.35;1.83;;;;;;;20.74;53.14;100130.93;;;;-52
2019/06/11 05:47:07;;;;;;;2.75;1.76;;;;;;;20.75;53.04;100128.17;;;;-52
2019/06/11 05:50:07;;;;;;;2.67;1.89;;;;;;;20.74;53.01;100129.66;;;;-51
2019/06/11 05:53:07;;;;;;;2.75;1.97;;;;;;;20.74;53.04;100126.53;;;;-48
2019/06/11 05:56:07;;;;;;;3.09;1.83;;;;;;;20.74;53.13;100122.67;;;;-50
2019/06/11 05:59:06;;;;;;;2.44;1.75;;;;;;;20.73;53.02;100114.12;;;;-48
2019/06/11 06:02:07;;;;;;;2.35;1.71;;;;;;;20.74;53.07;100107.00;;;;-49
2019/06/11 06:05:06;;;;;;;2.54;1.66;;;;;;;20.74;53.11;100096.59;;;;-49
2019/06/11 06:08:07;;;;;;;3.79;1.82;;;;;;;20.74;53.11;100100.86;;;;-48
2019/06/11 06:11:06;;;;;;;2.91;1.80;;;;;;;20.73;53.12;100097.73;;;;-50
2019/06/11 06:14:07;;;;;;;2.16;1.72;;;;;;;20.72;53.10;100088.91;;;;-51
2019/06/11 06:17:07;;;;;;;3.93;1.85;;;;;;;20.73;53.02;100086.83;;;;-51
2019/06/11 06:20:06;;;;;;;3.67;1.65;;;;;;;20.73;53.02;100086.56;;;;-51
2019/06/11 06:23:06;;;;;;;2.37;1.85;;;;;;;20.73;53.01;100083.47;;;;-51
2019/06/11 06:26:07;;;;;;;2.05;1.69;;;;;;;20.73;53.03;100073.91;;;;-51
2019/06/11 06:29:07;;;;;;;1.78;1.60;;;;;;;20.73;53.02;100069.04;;;;-51
2019/06/11 06:32:07;;;;;;;3.33;1.75;;;;;;;20.72;52.98;100066.33;;;;-51
2019/06/11 06:35:07;;;;;;;2.47;1.61;;;;;;;20.73;52.97;100065.85;;;;-51
2019/06/11 06:38:06;;;;;;;2.62;1.82;;;;;;;20.72;52.93;100069.95;;;;-51
2019/06/11 06:41:06;;;;;;;2.82;1.68;;;;;;;20.72;52.93;100074.31;;;;-51
2019/06/11 06:44:06;;;;;;;2.05;1.81;;;;;;;20.72;52.92;100071.52;;;;-50
2019/06/11 06:47:07;;;;;;;2.01;1.59;;;;;;;20.72;52.92;100071.95;;;;-51
2019/06/11 06:50:07;;;;;;;2.35;1.73;;;;;;;20.71;52.86;100063.53;;;;-51
2019/06/11 06:53:07;;;;;;;3.99;1.63;;;;;;;20.72;52.86;100065.65;;;;-51
2019/06/11 06:56:06;;;;;;;2.81;1.77;;;;;;;20.72;52.87;100062.97;;;;-51
2019/06/11 06:59:06;;;;;;;1.85;1.66;;;;;;;20.71;52.91;100066.89;;;;-51
2019/06/11 07:02:06;;;;;;;1.73;1.63;;;;;;;20.72;52.89;100074.55;;;;-50
2019/06/11 07:05:06;;;;;;;1.97;1.77;;;;;;;20.71;52.85;100083.84;;;;-50
2019/06/11 07:08:06;;;;;;;2.72;1.75;;;;;;;20.71;52.83;100082.50;;;;-50
2019/06/11 07:11:07;;;;;;;2.82;1.60;;;;;;;20.71;52.85;100084.24;;;;-51
2019/06/11 07:14:07;;;;;;;2.56;1.67;;;;;;;20.71;52.79;100087.09;;;;-51
2019/06/11 07:17:07;;;;;;;1.99;1.79;;;;;;;20.70;52.84;100079.34;;;;-50
2019/06/11 07:20:07;;;;;;;2.23;1.70;;;;;;;20.70;52.82;100085.72;;;;-51
2019/06/11 07:23:07;;;;;;;1.69;1.59;;;;;;;20.70;52.82;100086.06;;;;-51
2019/06/11 07:26:07;;;;;;;1.75;1.65;;;;;;;20.69;52.84;100093.17;;;;-51
2019/06/11 07:29:07;;;;;;;3.55;1.73;;;;;;;20.70;52.80;100093.61;;;;-51
2019/06/11 07:32:07;;;;;;;1.86;1.71;;;;;;;20.68;52.79;100094.48;;;;-51
2019/06/11 07:35:06;;;;;;;2.50;1.65;;;;;;;20.69;52.80;100094.52;;;;-50
2019/06/11 07:38:07;;;;;;;1.90;1.60;;;;;;;20.69;52.78;100095.19;;;;-57
2019/06/11 07:41:06;;;;;;;1.93;1.75;;;;;;;20.69;52.77;100098.44;;;;-55
2019/06/11 07:44:06;;;;;;;2.15;1.88;;;;;;;20.69;52.76;100098.94;;;;-55
2019/06/11 07:47:07;;;;;;;2.54;1.70;;;;;;;20.69;52.75;100104.25;;;;-57
2019/06/11 07:50:07;;;;;;;2.21;1.73;;;;;;;20.69;52.76;100104.58;;;;-55
2019/06/11 07:53:06;;;;;;;1.75;1.63;;;;;;;20.68;52.73;100101.86;;;;-56
2019/06/11 07:56:06;;;;;;;2.37;1.61;;;;;;;20.68;52.74;100097.67;;;;-56
2019/06/11 07:59:06;;;;;;;1.85;1.71;;;;;;;20.68;52.70;100095.22;;;;-55
2019/06/11 08:02:07;;;;;;;2.00;1.69;;;;;;;20.68;52.71;100097.50;;;;-55
2019/06/11 08:05:07;;;;;;;1.96;1.67;;;;;;;20.68;52.70;100097.84;;;;-56
2019/06/11 08:08:07;;;;;;;1.83;1.73;;;;;;;20.67;52.71;100096.96;;;;-56
2019/06/11 08:11:07;;;;;;;1.70;1.60;;;;;;;20.68;52.72;100101.59;;;;-56
2019/06/11 08:14:07;;;;;;;2.11;1.61;;;;;;;20.67;52.67;100100.05;;;;-56
2019/06/11 08:17:06;;;;;;;1.70;1.59;;;;;;;20.67;52.69;100095.79;;;;-56
2019/06/11 08:20:07;;;;;;;1.89;1.69;;;;;;;20.67;52.65;100093.94;;;;-57
2019/06/11 08:23:07;;;;;;;1.79;1.67;;;;;;;20.67;52.69;100089.31;;;;-56
2019/06/11 08:26:07;;;;;;;1.85;1.70;;;;;;;20.66;52.67;100089.21;;;;-56
2019/06/11 08:29:06;;;;;;;1.79;1.59;;;;;;;20.68;52.67;100100.19;;;;-55
2019/06/11 08:32:06;;;;;;;1.87;1.71;;;;;;;20.68;52.67;100086.83;;;;-57
2019/06/11 08:35:07;;;;;;;1.89;1.63;;;;;;;20.67;52.61;100088.07;;;;-56
2019/06/11 08:38:06;;;;;;;1.79;1.69;;;;;;;20.67;52.62;100098.64;;;;-56
2019/06/11 08:41:06;;;;;;;1.71;1.61;;;;;;;20.68;52.65;100105.05;;;;-56
2019/06/11 08:44:07;;;;;;;1.79;1.69;;;;;;;20.67;52.61;100088.58;;;;-55
2019/06/11 08:47:06;;;;;;;1.72;1.60;;;;;;;20.67;52.60;100093.27;;;;-56
2019/06/11 08:50:06;;;;;;;1.81;1.68;;;;;;;20.67;52.59;100093.44;;;;-57
2019/06/11 08:53:06;;;;;;;1.71;1.60;;;;;;;20.66;52.61;100088.37;;;;-55
2019/06/11 08:56:07;;;;;;;1.78;1.61;;;;;;;20.66;52.57;100095.25;;;;-55
2019/06/11 08:59:06;;;;;;;1.62;1.52;;;;;;;20.66;52.60;100092.30;;;;-55
2019/06/11 09:02:07;;;;;;;1.70;1.60;;;;;;;20.66;52.61;100091.23;;;;-55
2019/06/11 09:05:06;;;;;;;1.70;1.60;;;;;;;20.66;52.64;100080.98;;;;-55
2019/06/11 09:08:06;;;;;;;1.72;1.62;;;;;;;20.66;52.62;100082.56;;;;-56
2019/06/11 09:11:06;;;;;;;1.85;1.50;;;;;;;20.65;52.59;100085.15;;;;-55
2019/06/11 09:14:06;;;;;;;1.76;1.66;;;;;;;20.65;52.56;100075.42;;;;-56
2019/06/11 09:17:06;;;;;;;1.61;1.51;;;;;;;20.66;52.54;100070.25;;;;-55
2019/06/11 09:20:07;;;;;;;2.33;1.66;;;;;;;20.65;52.56;100070.22;;;;-57
2019/06/11 09:23:06;;;;;;;1.70;1.60;;;;;;;20.65;52.53;100072.97;;;;-56
2019/06/11 09:26:06;;;;;;;1.69;1.59;;;;;;;20.65;52.56;100063.41;;;;-55
2019/06/11 09:29:06;;;;;;;1.90;1.75;;;;;;;20.65;52.51;100067.77;;;;-56
2019/06/11 09:32:06;;;;;;;1.70;1.60;;;;;;;20.65;52.58;100079.84;;;;-56
2019/06/11 09:35:06;;;;;;;1.88;1.67;;;;;;;20.65;52.54;100084.81;;;;-56
2019/06/11 09:38:06;;;;;;;1.60;1.50;;;;;;;20.64;52.52;100083.84;;;;-51
2019/06/11 09:41:06;;;;;;;1.61;1.50;;;;;;;20.65;52.50;100080.02;;;;-50
2019/06/11 09:44:06;;;;;;;1.58;1.48;;;;;;;20.65;52.50;100076.09;;;;-51
2019/06/11 09:47:06;;;;;;;1.60;1.50;;;;;;;20.64;52.51;100073.20;;;;-50
2019/06/11 09:50:06;;;;;;;1.73;1.63;;;;;;;20.64;52.49;100073.88;;;;-50
2019/06/11 09:53:07;;;;;;;1.59;1.46;;;;;;;20.63;52.50;100071.49;;;;-51
2019/06/11 09:56:07;;;;;;;1.81;1.71;;;;;;;20.64;52.53;100074.28;;;;-52
2019/06/11 09:59:06;;;;;;;1.78;1.61;;;;;;;20.64;52.52;100077.06;;;;-51
2019/06/11 10:02:06;;;;;;;1.81;1.70;;;;;;;20.65;52.50;100073.30;;;;-50
2019/06/11 10:05:06;;;;;;;1.66;1.56;;;;;;;20.64;52.52;100077.91;;;;-51
2019/06/11 10:08:06;;;;;;;1.70;1.60;;;;;;;20.63;52.50;100077.94;;;;-50
2019/06/11 10:11:07;;;;;;;1.76;1.65;;;;;;;20.64;52.50;100082.50;;;;-50
2019/06/11 10:14:06;;;;;;;1.60;1.50;;;;;;;20.64;52.49;100078.14;;;;-51
2019/06/11 10:17:06;;;;;;;1.70;1.60;;;;;;;20.63;52.48;100080.22;;;;-50
2019/06/11 10:20:06;;;;;;;1.81;1.53;;;;;;;20.64;52.48;100064.98;;;;-51
2019/06/11 10:23:07;;;;;;;1.59;1.49;;;;;;;20.64;52.42;100067.00;;;;-50
2019/06/11 10:26:07;;;;;;;1.80;1.70;;;;;;;20.63;52.48;100076.19;;;;-50
2019/06/11 10:29:07;;;;;;;1.60;1.50;;;;;;;20.63;52.48;100072.00;;;;-51
2019/06/11 10:32:07;;;;;;;1.60;1.50;;;;;;;20.63;52.51;100075.02;;;;-50
2019/06/11 10:35:06;;;;;;;1.73;1.60;;;;;;;20.63;52.49;100080.05;;;;-51
2019/06/11 10:38:06;;;;;;;1.71;1.61;;;;;;;20.63;52.50;100067.63;;;;-51
2019/06/11 10:41:07;;;;;;;1.67;1.57;;;;;;;20.64;52.49;100059.45;;;;-51
2019/06/11 10:44:06;;;;;;;1.69;1.59;;;;;;;20.64;52.48;100059.78;;;;-51
2019/06/11 10:47:06;;;;;;;1.91;1.70;;;;;;;20.63;52.48;100059.91;;;;-51
2019/06/11 10:50:07;;;;;;;1.73;1.60;;;;;;;20.62;52.46;100049.64;;;;-51
2019/06/11 10:53:06;;;;;;;1.68;1.56;;;;;;;20.64;52.48;100050.28;;;;-50
2019/06/11 10:56:06;;;;;;;1.63;1.53;;;;;;;20.63;52.48;100069.14;;;;-50
2019/06/11 10:59:06;;;;;;;1.55;1.45;;;;;;;20.63;52.42;100084.48;;;;-51
2019/06/11 11:02:06;;;;;;;1.72;1.58;;;;;;;20.63;52.46;100088.27;;;;-51
2019/06/11 11:05:06;;;;;;;1.71;1.61;;;;;;;20.62;52.40;100078.73;;;;-51
2019/06/11 11:08:07;;;;;;;1.60;1.50;;;;;;;20.62;52.41;100068.03;;;;-51
2019/06/11 11:11:06;;;;;;;1.68;1.58;;;;;;;20.62;52.40;100063.47;;;;-50
2019/06/11 11:14:06;;;;;;;1.60;1.50;;;;;;;20.62;52.41;100064.75;;;;-50
2019/06/11 11:17:06;;;;;;;1.60;1.50;;;;;;;20.62;52.42;100055.28;;;;-51
2019/06/11 11:20:06;;;;;;;1.65;1.55;;;;;;;20.61;52.39;100044.18;;;;-50
2019/06/11 11:23:06;;;;;;;1.57;1.47;;;;;;;20.61;52.43;100043.07;;;;-51
2019/06/11 11:26:07;;;;;;;1.64;1.54;;;;;;;20.62;52.39;100047.63;;;;-50
2019/06/11 11:29:06;;;;;;;1.79;1.52;;;;;;;20.61;52.37;100047.27;;;;-50
2019/06/11 11:32:06;;;;;;;1.59;1.49;;;;;;;20.61;52.41;100050.89;;;;-52
2019/06/11 11:35:06;;;;;;;1.59;1.49;;;;;;;20.62;52.39;100052.94;;;;-51
2019/06/11 11:38:06;;;;;;;1.55;1.45;;;;;;;20.61;52.41;100050.12;;;;-51
2019/06/11 11:41:07;;;;;;;1.65;1.55;;;;;;;20.62;52.39;100049.81;;;;-50
2019/06/11 11:44:07;;;;;;;1.63;1.53;;;;;;;20.61;52.39;100038.20;;;;-51
2019/06/11 11:47:06;;;;;;;1.69;1.59;;;;;;;20.62;52.37;100028.41;;;;-51
2019/06/11 11:50:06;;;;;;;1.56;1.46;;;;;;;20.62;52.39;100030.69;;;;-50
2019/06/11 11:53:06;;;;;;;1.57;1.47;;;;;;;20.61;52.38;100048.44;;;;-50
2019/06/11 11:56:06;;;;;;;1.63;1.53;;;;;;;20.61;52.39;100052.40;;;;-51
2019/06/11 11:59:07;;;;;;;1.58;1.48;;;;;;;20.61;52.38;100052.12;;;;-50
2019/06/11 12:02:07;;;;;;;1.63;1.53;;;;;;;20.61;52.39;100057.77;;;;-51
2019/06/11 12:05:06;;;;;;;1.54;1.44;;;;;;;20.61;52.39;100055.66;;;;-51
2019/06/11 12:08:06;;;;;;;1.51;1.41;;;;;;;20.61;52.39;100042.73;;;;-50
2019/06/11 12:11:06;;;;;;;1.55;1.45;;;;;;;20.61;52.34;100037.87;;;;-50
2019/06/11 12:14:06;;;;;;;1.60;1.50;;;;;;;20.61;52.36;100031.39;;;;-51
2019/06/11 12:17:07;;;;;;;1.67;1.55;;;;;;;20.60;52.37;100012.67;;;;-51
2019/06/11 12:20:07;;;;;;;1.60;1.50;;;;;;;20.61;52.38;100014.11;;;;-51
2019/06/11 12:23:06;;;;;;;1.69;1.59;;;;;;;20.60;52.39;100026.26;;;;-51
2019/06/11 12:26:06;;;;;;;1.59;1.49;;;;;;;20.60;52.36;100018.88;;;;-51
2019/06/11 12:29:07;;;;;;;1.71;1.61;;;;;;;20.61;52.39;100012.27;;;;-50
2019/06/11 12:32:06;;;;;;;1.62;1.52;;;;;;;20.60;52.35;100008.91;;;;-51
2019/06/11 12:35:06;;;;;;;1.75;1.63;;;;;;;20.60;52.37;100011.66;;;;-51
2019/06/11 12:38:06;;;;;;;2.68;1.54;;;;;;;20.60;52.35;100011.83;;;;-51
2019/06/11 12:41:07;;;;;;;1.60;1.50;;;;;;;20.61;52.33;100018.41;;;;-51
2019/06/11 12:44:06;;;;;;;1.67;1.57;;;;;;;20.60;52.33;100021.49;;;;-50
2019/06/11 12:47:06;;;;;;;1.69;1.59;;;;;;;20.61;52.37;100019.08;;;;-52
2019/06/11 12:50:06;;;;;;;1.66;1.56;;;;;;;20.61;52.34;100014.05;;;;-50
2019/06/11 12:53:07;;;;;;;1.61;1.51;;;;;;;20.59;52.32;100004.41;;;;-52
2019/06/11 12:56:06;;;;;;;1.49;1.39;;;;;;;20.61;52.36;100018.41;;;;-50
2019/06/11 12:59:06;;;;;;;1.58;1.48;;;;;;;20.60;52.36;100019.81;;;;-51
2019/06/11 13:02:06;;;;;;;1.63;1.53;;;;;;;20.60;52.34;100017.80;;;;-51
2019/06/11 13:05:06;;;;;;;1.70;1.60;;;;;;;20.60;52.34;100016.19;;;;-51
2019/06/11 13:08:07;;;;;;;1.50;1.40;;;;;;;20.60;52.35;100008.48;;;;-51
2019/06/11 13:11:06;;;;;;;1.60;1.50;;;;;;;20.60;52.34;100009.92;;;;-50
2019/06/11 13:14:06;;;;;;;1.75;1.57;;;;;;;20.60;52.34;100006.23;;;;-51
2019/06/11 13:17:06;;;;;;;1.57;1.47;;;;;;;20.60;52.31;100010.99;;;;-51
2019/06/11 13:20:06;;;;;;;1.69;1.59;;;;;;;20.60;52.34;100023.91;;;;-50
2019/06/11 13:23:06;;;;;;;1.50;1.40;;;;;;;20.60;52.35;100034.81;;;;-50
2019/06/11 13:26:07;;;;;;;1.58;1.48;;;;;;;20.60;52.34;100040.02;;;;-50
2019/06/11 13:29:07;;;;;;;1.60;1.50;;;;;;;20.60;52.32;100036.16;;;;-51
2019/06/11 13:32:07;;;;;;;1.60;1.50;;;;;;;20.60;52.33;100029.28;;;;-50
2019/06/11 13:35:07;;;;;;;1.71;1.61;;;;;;;20.61;52.32;100032.73;;;;-51
2019/06/11 13:38:06;;;;;;;1.51;1.41;;;;;;;20.59;52.36;100027.00;;;;-51
2019/06/11 13:41:07;;;;;;;1.66;1.54;;;;;;;20.59;52.31;100025.89;;;;-50
2019/06/11 13:44:07;;;;;;;1.60;1.50;;;;;;;20.60;52.30;100030.36;;;;-51
2019/06/11 13:47:06;;;;;;;1.55;1.45;;;;;;;20.59;52.30;100039.58;;;;-51
2019/06/11 13:50:07;;;;;;;1.60;1.50;;;;;;;20.60;52.32;100041.86;;;;-50
2019/06/11 13:53:06;;;;;;;1.51;1.40;;;;;;;20.60;52.33;100038.94;;;;-50
2019/06/11 13:56:06;;;;;;;1.60;1.50;;;;;;;20.60;52.28;100038.91;;;;-50
2019/06/11 13:59:06;;;;;;;1.62;1.52;;;;;;;20.60;52.31;100045.28;;;;-50
2019/06/11 14:02:06;;;;;;;1.63;1.53;;;;;;;20.59;52.28;100049.81;;;;-50
2019/06/11 14:05:06;;;;;;;1.61;1.51;;;;;;;20.60;52.28;100049.58;;;;-50
2019/06/11 14:08:07;;;;;;;1.64;1.54;;;;;;;20.60;52.27;100035.55;;;;-52
2019/06/11 14:11:07;;;;;;;1.55;1.45;;;;;;;20.59;52.28;100017.50;;;;-51
2019/06/11 14:14:06;;;;;;;1.60;1.50;;;;;;;20.59;52.29;100038.81;;;;-50
2019/06/11 14:17:06;;;;;;;1.68;1.58;;;;;;;20.59;52.27;100045.52;;;;-50
2019/06/11 14:20:06;;;;;;;1.67;1.55;;;;;;;20.60;52.29;100048.64;;;;-51
2019/06/11 14:23:06;;;;;;;1.60;1.50;;;;;;;20.59;52.28;100047.43;;;;-51
2019/06/11 14:26:06;;;;;;;1.60;1.50;;;;;;;20.60;52.28;100044.55;;;;-50
2019/06/11 14:29:07;;;;;;;1.60;1.50;;;;;;;20.59;52.29;100038.20;;;;-50
2019/06/11 14:32:06;;;;;;;1.60;1.50;;;;;;;20.59;52.24;100037.91;;;;-51
2019/06/11 14:35:06;;;;;;;1.51;1.41;;;;;;;20.59;52.25;100035.89;;;;-51
2019/06/11 14:38:06;;;;;;;1.69;1.58;;;;;;;20.59;52.24;100035.35;;;;-50
2019/06/11 14:41:06;;;;;;;1.50;1.40;;;;;;;20.59;52.25;100037.30;;;;-51
2019/06/11 14:44:07;;;;;;;1.50;1.40;;;;;;;20.59;52.25;100039.31;;;;-50
2019/06/11 14:47:07;;;;;;;1.59;1.49;;;;;;;20.59;52.24;100048.14;;;;-50
2019/06/11 14:50:06;;;;;;;1.58;1.48;;;;;;;20.59;52.27;100038.14;;;;-51
2019/06/11 14:53:06;;;;;;;1.40;1.30;;;;;;;20.59;52.26;100037.36;;;;-50
2019/06/11 14:56:06;;;;;;;1.60;1.50;;;;;;;20.59;52.21;100036.70;;;;-50
2019/06/11 14:59:07;;;;;;;1.51;1.41;;;;;;;20.59;52.21;100032.16;;;;-50
2019/06/11 15:02:06;;;;;;;1.60;1.50;;;;;;;20.59;52.24;100030.82;;;;-50
2019/06/11 15:05:06;;;;;;;1.60;1.50;;;;;;;20.59;52.25;100022.94;;;;-51
2019/06/11 15:08:07;;;;;;;1.44;1.34;;;;;;;20.58;52.21;100023.34;;;;-51
2019/06/11 15:11:06;;;;;;;1.51;1.41;;;;;;;20.58;52.21;100024.34;;;;-51
2019/06/11 15:14:06;;;;;;;1.50;1.40;;;;;;;20.58;52.21;100028.30;;;;-51
2019/06/11 15:17:06;;;;;;;1.42;1.32;;;;;;;20.58;52.23;100016.97;;;;-51
2019/06/11 15:20:07;;;;;;;1.52;1.42;;;;;;;20.59;52.20;100015.05;;;;-50
2019/06/11 15:23:06;;;;;;;1.60;1.50;;;;;;;20.58;52.21;100005.29;;;;-51
2019/06/11 15:26:07;;;;;;;1.59;1.49;;;;;;;20.59;52.26;100002.47;;;;-50
2019/06/11 15:29:06;;;;;;;1.41;1.31;;;;;;;20.59;52.22;99996.27;;;;-51
2019/06/11 15:32:06;;;;;;;1.61;1.51;;;;;;;20.58;52.22;99992.06;;;;-50
2019/06/11 15:35:06;;;;;;;1.48;1.38;;;;;;;20.58;52.17;99985.42;;;;-50
2019/06/11 15:38:07;;;;;;;1.51;1.41;;;;;;;20.58;52.20;99988.55;;;;-51
2019/06/11 15:41:06;;;;;;;1.52;1.42;;;;;;;20.58;52.20;99988.05;;;;-51
2019/06/11 15:44:06;;;;;;;1.51;1.41;;;;;;;20.58;52.21;99981.56;;;;-51
2019/06/11 15:47:06;;;;;;;1.50;1.40;;;;;;;20.58;52.17;99976.87;;;;-51
2019/06/11 15:50:06;;;;;;;1.38;1.31;;;;;;;20.58;52.17;99972.17;;;;-50
2019/06/11 15:53:07;;;;;;;1.50;1.40;;;;;;;20.59;52.18;99964.89;;;;-50
2019/06/11 15:56:06;;;;;;;1.46;1.36;;;;;;;20.58;52.17;99966.47;;;;-50
2019/06/11 15:59:07;;;;;;;1.49;1.39;;;;;;;20.57;52.17;99958.88;;;;-48
2019/06/11 16:02:07;;;;;;;1.60;1.50;;;;;;;20.58;52.19;99957.67;;;;-48
2019/06/11 16:05:07;;;;;;;1.50;1.40;;;;;;;20.58;52.18;99961.00;;;;-49
2019/06/11 16:08:06;;;;;;;1.53;1.43;;;;;;;20.57;52.17;99964.09;;;;-49
2019/06/11 16:11:06;;;;;;;1.49;1.39;;;;;;;20.58;52.17;99961.00;;;;-48
2019/06/11 16:14:06;;;;;;;1.50;1.40;;;;;;;20.57;52.19;99956.20;;;;-48
2019/06/11 16:17:07;;;;;;;1.53;1.43;;;;;;;20.58;52.17;99962.17;;;;-48
2019/06/11 16:20:07;;;;;;;1.57;1.47;;;;;;;20.57;52.16;99962.08;;;;-48
2019/06/11 16:23:07;;;;;;;1.50;1.40;;;;;;;20.57;52.18;99966.27;;;;-48
2019/06/11 16:26:06;;;;;;;1.50;1.40;;;;;;;20.57;52.18;99963.75;;;;-48
2019/06/11 16:29:06;;;;;;;1.40;1.30;;;;;;;20.57;52.14;99954.13;;;;-48
2019/06/11 16:32:06;;;;;;;1.40;1.30;;;;;;;20.57;52.17;99950.67;;;;-49
2019/06/11 16:35:06;;;;;;;1.58;1.42;;;;;;;20.57;52.16;99942.52;;;;-48
2019/06/11 16:38:06;;;;;;;1.29;1.27;;;;;;;20.57;52.18;99943.55;;;;-48
2019/06/11 16:41:07;;;;;;;1.49;1.39;;;;;;;20.57;52.16;99943.12;;;;-48
2019/06/11 16:44:06;;;;;;;1.43;1.33;;;;;;;20.57;52.15;99942.38;;;;-48